Time;durP1;ratioP1;P1;durP2;ratioP2;P2;SDS_P1;SDS_P2;PMS_P1;PMS_P2;Temp;Humidity;BMP_temperature;BMP_pressure;BME280_temperature;BME280_humidity;BME280_pressure;Samples;Min_cycle;Max_cycle;Signal;HPM_P1;HPM_P2
2021/04/23 00:00:55;;;;;;;2.67;1.27;;;11.70;80.20;;;;;;5096482;28;20320;-71
2021/04/23 00:03:36;;;;;;;2.05;1.30;;;11.70;80.50;;;;;;5095665;28;20175;-71
2021/04/23 00:06:12;;;;;;;1.20;1.20;;;11.70;80.60;;;;;;5079327;28;20596;-70
2021/04/23 00:08:40;;;;;;;1.60;1.50;;;11.70;80.50;;;;;;5101596;28;20177;-71
2021/04/23 00:11:07;;;;;;;1.63;1.50;;;11.70;80.30;;;;;;5094894;28;20186;-70
2021/04/23 00:13:35;;;;;;;1.55;1.45;;;11.70;80.70;;;;;;5094809;28;20254;-71
2021/04/23 00:16:01;;;;;;;1.08;0.98;;;11.70;80.50;;;;;;5081139;28;21588;-71
2021/04/23 00:18:27;;;;;;;1.10;1.00;;;11.70;79.90;;;;;;5096530;28;20185;-70
2021/04/23 00:20:52;;;;;;;1.58;1.48;;;11.80;79.90;;;;;;5098520;28;20769;-70
2021/04/23 00:23:18;;;;;;;1.30;1.30;;;11.80;79.50;;;;;;5098464;28;20177;-71
2021/04/23 00:25:45;;;;;;;1.33;1.30;;;11.80;79.90;;;;;;5099898;28;20190;-70
2021/04/23 00:28:13;;;;;;;1.40;1.30;;;11.80;79.70;;;;;;5098298;28;20178;-71
2021/04/23 00:30:44;;;;;;;1.20;1.20;;;11.90;79.90;;;;;;5097501;28;20238;-69
2021/04/23 00:33:10;;;;;;;3.90;1.15;;;11.90;79.50;;;;;;5095857;28;20238;-70
2021/04/23 00:35:40;;;;;;;1.38;1.10;;;11.90;80.10;;;;;;5096442;28;20674;-72
2021/04/23 00:38:08;;;;;;;1.20;1.20;;;11.90;80.60;;;;;;5096101;28;20185;-71
2021/04/23 00:40:47;;;;;;;1.83;1.10;;;11.80;80.30;;;;;;5075656;28;20191;-70
2021/04/23 00:43:12;;;;;;;1.25;1.20;;;11.80;80.10;;;;;;5091915;28;20193;-70
2021/04/23 00:45:38;;;;;;;1.80;1.70;;;11.80;82.10;;;;;;5099674;28;20178;-70
2021/04/23 00:48:06;;;;;;;1.20;1.20;;;11.70;81.70;;;;;;5096980;28;20181;-71
2021/04/23 00:50:39;;;;;;;2.40;1.05;;;11.70;81.00;;;;;;5096126;28;20213;-72
2021/04/23 00:53:05;;;;;;;1.20;1.20;;;11.70;80.90;;;;;;5098101;28;20201;-70
2021/04/23 00:55:31;;;;;;;1.20;1.20;;;11.70;81.10;;;;;;5091498;28;20189;-70
2021/04/23 00:57:57;;;;;;;1.70;1.60;;;11.70;81.30;;;;;;5100661;28;20178;-70
2021/04/23 01:00:24;;;;;;;1.35;1.30;;;11.70;81.60;;;;;;5095395;28;20654;-70
2021/04/23 01:02:50;;;;;;;1.70;1.60;;;11.60;82.10;;;;;;5097140;28;20178;-71
2021/04/23 01:05:16;;;;;;;1.10;1.08;;;11.60;82.00;;;;;;5095202;28;20622;-71
2021/04/23 01:07:51;;;;;;;1.33;1.25;;;11.60;82.20;;;;;;5096370;28;20184;-70
2021/04/23 01:10:18;;;;;;;1.15;1.08;;;11.60;82.00;;;;;;5096158;28;20210;-71
2021/04/23 01:12:44;;;;;;;1.35;1.35;;;11.60;82.20;;;;;;5101921;28;20189;-70
2021/04/23 01:15:11;;;;;;;0.90;0.90;;;11.60;81.90;;;;;;5101615;28;20226;-70
2021/04/23 01:17:37;;;;;;;1.08;1.08;;;11.60;81.50;;;;;;5098623;28;20186;-70
2021/04/23 01:20:05;;;;;;;1.38;1.38;;;11.70;81.80;;;;;;5095952;28;20188;-70
2021/04/23 01:22:30;;;;;;;1.70;1.60;;;11.70;82.20;;;;;;5096011;28;20181;-70
2021/04/23 01:24:56;;;;;;;1.55;1.45;;;11.60;82.50;;;;;;5097364;28;20174;-70
2021/04/23 01:27:22;;;;;;;1.67;1.48;;;11.60;82.90;;;;;;5101494;28;20209;-70
2021/04/23 01:29:47;;;;;;;1.42;1.33;;;11.60;83.50;;;;;;5097203;28;20222;-70
2021/04/23 01:32:13;;;;;;;2.15;1.25;;;11.60;83.30;;;;;;5103156;28;20184;-70
2021/04/23 01:34:41;;;;;;;1.33;1.27;;;11.60;83.20;;;;;;5095993;28;20180;-69
2021/04/23 01:37:08;;;;;;;2.00;1.63;;;11.60;83.70;;;;;;5098240;28;20256;-69
2021/04/23 01:39:37;;;;;;;1.40;1.30;;;11.60;83.90;;;;;;5092744;28;20283;-69
2021/04/23 01:42:05;;;;;;;1.90;1.50;;;11.60;83.90;;;;;;5096838;28;20626;-70
2021/04/23 01:44:32;;;;;;;1.40;1.33;;;11.50;84.10;;;;;;5096270;28;20192;-70
2021/04/23 01:46:58;;;;;;;1.40;1.30;;;11.50;84.40;;;;;;5102037;28;20178;-70
2021/04/23 01:49:42;;;;;;;1.30;1.30;;;11.60;84.60;;;;;;5094033;28;20209;-69
2021/04/23 01:52:15;;;;;;;2.13;1.67;;;11.60;84.70;;;;;;5089244;28;20187;-69
2021/04/23 01:54:41;;;;;;;1.45;1.40;;;11.50;84.70;;;;;;5095580;28;20181;-69
2021/04/23 01:57:08;;;;;;;2.10;2.00;;;11.50;85.20;;;;;;5097975;28;20182;-70
2021/04/23 01:59:36;;;;;;;1.20;1.20;;;11.40;85.60;;;;;;5100856;28;20213;-69
2021/04/23 02:02:03;;;;;;;1.40;1.30;;;11.40;86.80;;;;;;5100698;28;20176;-70
2021/04/23 02:04:29;;;;;;;1.80;1.70;;;11.40;85.90;;;;;;5101102;28;20182;-69
2021/04/23 02:06:55;;;;;;;1.52;1.42;;;11.30;86.00;;;;;;5102858;28;20262;-71
2021/04/23 02:09:22;;;;;;;1.58;1.58;;;11.30;86.20;;;;;;5101812;28;20204;-70
2021/04/23 02:11:51;;;;;;;1.67;1.50;;;11.30;86.00;;;;;;5097048;28;20240;-70
2021/04/23 02:14:17;;;;;;;1.65;1.65;;;11.30;86.60;;;;;;5103043;28;20178;-70
2021/04/23 02:16:44;;;;;;;1.50;1.40;;;11.30;87.90;;;;;;5100732;28;20183;-70
2021/04/23 02:19:11;;;;;;;1.38;1.38;;;11.20;87.60;;;;;;5096717;28;20182;-69
2021/04/23 02:21:38;;;;;;;1.45;1.30;;;11.20;87.60;;;;;;5099955;28;20183;-70
2021/04/23 02:24:06;;;;;;;1.75;1.73;;;11.20;87.40;;;;;;5103495;28;20260;-70
2021/04/23 02:26:33;;;;;;;1.70;1.60;;;11.20;87.50;;;;;;5100517;28;20187;-69
2021/04/23 02:28:59;;;;;;;1.80;1.70;;;11.20;87.50;;;;;;5103574;28;20764;-70
2021/04/23 02:31:28;;;;;;;2.20;1.70;;;11.20;87.90;;;;;;5100147;28;20182;-69
2021/04/23 02:33:56;;;;;;;1.63;1.50;;;11.20;88.60;;;;;;5103638;28;20182;-70
2021/04/23 02:36:22;;;;;;;1.73;1.35;;;11.10;88.80;;;;;;5101917;28;20194;-70
2021/04/23 02:38:49;;;;;;;1.58;1.48;;;11.10;88.20;;;;;;5100625;28;20197;-69
2021/04/23 02:41:17;;;;;;;2.15;1.83;;;11.10;88.10;;;;;;5099643;28;20284;-70
2021/04/23 02:43:55;;;;;;;1.80;1.80;;;11.10;89.20;;;;;;5104886;28;20908;-69
2021/04/23 02:46:23;;;;;;;1.77;1.38;;;11.10;88.20;;;;;;5101446;28;20194;-71
2021/04/23 02:48:49;;;;;;;1.70;1.60;;;11.10;87.90;;;;;;5099952;28;20224;-69
2021/04/23 02:51:21;;;;;;;1.42;1.42;;;11.20;87.90;;;;;;5100936;28;20177;-70
2021/04/23 02:53:48;;;;;;;1.27;1.27;;;11.20;87.60;;;;;;5098460;28;20181;-70
2021/04/23 02:56:14;;;;;;;1.63;1.52;;;11.20;87.90;;;;;;5099066;28;20169;-70
2021/04/23 02:58:40;;;;;;;1.70;1.60;;;11.20;87.70;;;;;;5102329;28;20241;-70
2021/04/23 03:01:11;;;;;;;1.20;1.20;;;11.30;87.80;;;;;;5098726;28;20174;-70
2021/04/23 03:03:38;;;;;;;1.73;1.73;;;11.30;88.40;;;;;;5102144;28;20181;-70
2021/04/23 03:06:04;;;;;;;1.73;1.63;;;11.30;89.40;;;;;;5102160;28;20208;-70
2021/04/23 03:08:30;;;;;;;1.88;1.70;;;11.30;90.70;;;;;;5100597;28;20787;-70
2021/04/23 03:11:08;;;;;;;1.55;1.40;;;11.30;90.50;;;;;;5100984;28;20181;-70
2021/04/23 03:13:34;;;;;;;1.10;1.10;;;11.30;90.20;;;;;;5098534;28;20199;-70
2021/04/23 03:16:00;;;;;;;1.63;1.52;;;11.20;90.90;;;;;;5098781;28;20180;-70
2021/04/23 03:18:28;;;;;;;1.55;1.45;;;11.10;92.10;;;;;;5101317;28;20831;-70
2021/04/23 03:20:56;;;;;;;1.10;1.10;;;11.00;92.40;;;;;;5099640;28;20238;-70
2021/04/23 03:23:22;;;;;;;2.05;1.48;;;11.00;92.50;;;;;;5099672;28;20182;-70
2021/04/23 03:25:48;;;;;;;1.98;1.88;;;10.90;92.90;;;;;;5103192;28;20285;-71
2021/04/23 03:28:15;;;;;;;1.67;1.67;;;10.90;92.90;;;;;;5099549;28;20346;-71
2021/04/23 03:30:41;;;;;;;3.97;1.70;;;10.90;93.20;;;;;;5104374;28;20209;-70
2021/04/23 03:33:10;;;;;;;1.17;1.17;;;10.90;93.50;;;;;;5100538;28;20173;-71
2021/04/23 03:35:37;;;;;;;1.30;1.30;;;10.90;92.40;;;;;;5099870;28;20729;-71
2021/04/23 03:38:04;;;;;;;2.33;1.50;;;10.90;92.30;;;;;;5083241;28;20220;-71
2021/04/23 03:40:32;;;;;;;1.23;1.23;;;10.90;93.00;;;;;;5103168;28;20201;-71
2021/04/23 03:42:58;;;;;;;0.82;0.82;;;10.90;92.80;;;;;;5096832;28;20382;-70
2021/04/23 03:45:25;;;;;;;1.20;1.20;;;10.90;93.10;;;;;;5098141;28;20181;-70
2021/04/23 03:47:51;;;;;;;1.10;1.10;;;10.90;92.80;;;;;;5101141;28;20178;-70
2021/04/23 03:50:20;;;;;;;1.85;1.48;;;10.90;92.80;;;;;;5098188;28;20214;-70
2021/04/23 03:52:47;;;;;;;1.20;1.20;;;10.90;93.00;;;;;;5101009;28;20694;-70
2021/04/23 03:55:27;;;;;;;1.02;1.02;;;10.90;93.00;;;;;;5096494;28;20183;-69
2021/04/23 03:57:53;;;;;;;1.17;1.17;;;10.90;92.80;;;;;;5096264;28;20182;-69
2021/04/23 04:00:24;;;;;;;1.05;1.05;;;10.90;93.00;;;;;;5096073;28;20272;-69
2021/04/23 04:02:50;;;;;;;1.10;1.10;;;10.80;93.40;;;;;;5098371;28;20257;-70
2021/04/23 04:05:15;;;;;;;1.20;1.20;;;10.80;93.30;;;;;;5075423;28;20633;-70
2021/04/23 04:07:41;;;;;;;2.10;1.33;;;10.80;93.70;;;;;;5099167;28;21213;-70
2021/04/23 04:10:09;;;;;;;1.08;1.08;;;10.80;93.00;;;;;;5095835;28;20247;-70
2021/04/23 04:12:35;;;;;;;0.95;0.95;;;10.80;92.90;;;;;;5095325;28;20194;-70
2021/04/23 04:15:01;;;;;;;1.13;1.02;;;10.80;93.60;;;;;;5097207;28;20174;-70
2021/04/23 04:17:27;;;;;;;1.65;1.20;;;10.70;93.00;;;;;;5090643;28;20246;-70
2021/04/23 04:19:52;;;;;;;1.42;1.33;;;10.80;92.70;;;;;;5099638;28;20173;-70
2021/04/23 04:22:18;;;;;;;1.48;1.13;;;10.80;92.70;;;;;;5096274;28;20209;-71
2021/04/23 04:24:44;;;;;;;1.60;1.08;;;10.80;93.00;;;;;;5089753;28;20182;-70
2021/04/23 04:27:09;;;;;;;1.40;1.40;;;10.80;92.70;;;;;;5099174;28;20181;-69
2021/04/23 04:29:35;;;;;;;1.20;1.20;;;10.80;93.40;;;;;;5098087;28;20730;-69
2021/04/23 04:32:01;;;;;;;1.02;1.02;;;10.80;92.80;;;;;;5101113;28;20710;-70
2021/04/23 04:34:26;;;;;;;3.35;1.55;;;10.80;92.70;;;;;;5098492;28;20676;-69
2021/04/23 04:36:52;;;;;;;1.63;1.02;;;10.90;92.90;;;;;;5103447;28;20181;-69
2021/04/23 04:39:18;;;;;;;1.83;1.70;;;10.90;92.50;;;;;;5100071;28;20185;-69
2021/04/23 04:41:44;;;;;;;1.42;1.33;;;10.90;92.30;;;;;;5102665;28;20194;-69
2021/04/23 04:44:09;;;;;;;1.40;1.30;;;10.90;92.10;;;;;;5100081;28;20169;-69
2021/04/23 04:46:35;;;;;;;1.35;1.23;;;10.90;92.40;;;;;;5100751;28;20204;-69
2021/04/23 04:49:01;;;;;;;1.10;1.10;;;10.90;92.10;;;;;;5097078;28;20221;-70
2021/04/23 04:51:27;;;;;;;1.25;1.25;;;10.90;92.00;;;;;;5099086;28;20230;-70
2021/04/23 04:53:53;;;;;;;1.48;1.48;;;10.90;92.00;;;;;;5081250;28;20656;-74
2021/04/23 04:56:18;;;;;;;1.60;1.50;;;10.90;92.30;;;;;;5102249;28;20177;-73
2021/04/23 04:58:44;;;;;;;1.63;1.50;;;11.00;91.80;;;;;;5101729;28;20181;-73
2021/04/23 05:01:11;;;;;;;1.27;1.17;;;11.00;91.90;;;;;;5102339;28;20181;-73
2021/04/23 05:03:38;;;;;;;1.70;1.70;;;11.00;92.00;;;;;;5099498;28;20178;-74
2021/04/23 05:06:08;;;;;;;1.52;1.52;;;11.10;92.30;;;;;;5082987;28;20257;-74
2021/04/23 05:08:35;;;;;;;1.27;1.27;;;11.10;91.80;;;;;;5099859;28;20182;-74
2021/04/23 05:11:01;;;;;;;1.77;1.77;;;11.10;92.00;;;;;;5101256;28;20189;-73
2021/04/23 05:13:26;;;;;;;1.48;1.48;;;11.20;92.00;;;;;;5099818;28;20200;-73
2021/04/23 05:15:52;;;;;;;1.60;1.27;;;11.20;91.80;;;;;;5105627;28;20568;-73
2021/04/23 05:18:18;;;;;;;1.92;1.83;;;11.20;92.40;;;;;;5101882;28;20177;-74
2021/04/23 05:20:44;;;;;;;2.83;1.50;;;11.20;91.90;;;;;;5099911;28;20185;-73
2021/04/23 05:23:10;;;;;;;2.17;2.08;;;11.20;92.00;;;;;;5099977;28;20197;-72
2021/04/23 05:25:36;;;;;;;1.42;1.42;;;11.20;91.80;;;;;;5101974;28;20185;-72
2021/04/23 05:28:03;;;;;;;2.08;1.98;;;11.30;91.60;;;;;;5101333;28;20182;-72
2021/04/23 05:30:34;;;;;;;1.60;1.58;;;11.30;91.50;;;;;;5103640;28;20697;-72
2021/04/23 05:33:01;;;;;;;2.47;1.60;;;11.40;91.90;;;;;;5084440;28;20670;-73
2021/04/23 05:35:28;;;;;;;2.35;2.25;;;11.40;92.00;;;;;;5103264;28;20185;-74
2021/04/23 05:37:55;;;;;;;2.10;2.00;;;11.40;91.50;;;;;;5099446;28;20183;-73
2021/04/23 05:40:31;;;;;;;1.38;1.30;;;11.40;91.50;;;;;;5100219;28;20192;-71
2021/04/23 05:42:57;;;;;;;1.67;1.52;;;11.40;91.20;;;;;;5101410;28;20235;-72
2021/04/23 05:45:24;;;;;;;1.55;1.42;;;11.40;91.10;;;;;;5101961;28;20204;-72
2021/04/23 05:47:50;;;;;;;3.00;1.83;;;11.40;91.50;;;;;;5085985;28;20619;-73
2021/04/23 05:50:17;;;;;;;1.98;1.83;;;11.50;91.50;;;;;;5100090;28;20213;-73
2021/04/23 05:52:44;;;;;;;2.00;1.90;;;11.50;91.30;;;;;;5102082;28;20173;-73
2021/04/23 05:55:12;;;;;;;2.70;1.95;;;11.50;91.20;;;;;;5099043;28;20238;-72
2021/04/23 05:57:39;;;;;;;1.73;1.73;;;11.50;91.30;;;;;;5101656;28;20178;-72
2021/04/23 06:00:07;;;;;;;2.03;1.92;;;11.50;90.70;;;;;;5099830;28;20184;-73
2021/04/23 06:02:33;;;;;;;1.98;1.75;;;11.50;91.10;;;;;;5099296;28;20590;-74
2021/04/23 06:05:00;;;;;;;1.80;1.80;;;11.50;90.90;;;;;;5098477;28;20186;-73
2021/04/23 06:07:25;;;;;;;1.98;1.88;;;11.50;90.80;;;;;;5100664;28;20178;-72
2021/04/23 06:09:51;;;;;;;1.88;1.65;;;11.60;90.60;;;;;;5099182;28;20219;-73
2021/04/23 06:12:17;;;;;;;2.10;2.00;;;11.50;90.80;;;;;;5100617;28;20194;-73
2021/04/23 06:14:43;;;;;;;3.05;2.25;;;11.50;90.80;;;;;;5098119;28;20183;-73
2021/04/23 06:17:10;;;;;;;2.15;2.08;;;11.50;90.80;;;;;;5100771;28;20259;-73
2021/04/23 06:19:36;;;;;;;2.28;2.17;;;11.50;91.10;;;;;;5100126;28;20248;-74
2021/04/23 06:22:02;;;;;;;3.65;2.30;;;11.50;90.90;;;;;;5100836;28;20178;-73
2021/04/23 06:24:27;;;;;;;2.28;2.10;;;11.50;91.20;;;;;;5093675;28;20178;-74
2021/04/23 06:26:53;;;;;;;1.58;1.48;;;11.50;91.00;;;;;;5100003;28;20183;-75
2021/04/23 06:29:20;;;;;;;2.17;2.08;;;11.50;90.80;;;;;;5097993;28;20233;-73
2021/04/23 06:31:45;;;;;;;2.28;2.20;;;11.60;90.80;;;;;;5088018;28;20183;-73
2021/04/23 06:34:12;;;;;;;2.03;1.92;;;11.60;90.70;;;;;;5098061;28;20205;-73
2021/04/23 06:36:39;;;;;;;2.15;1.98;;;11.60;91.10;;;;;;5097771;28;20689;-75
2021/04/23 06:39:11;;;;;;;1.98;1.88;;;11.60;91.00;;;;;;5099968;28;20539;-73
2021/04/23 06:41:37;;;;;;;2.20;2.00;;;11.60;90.80;;;;;;5100335;28;20777;-74
2021/04/23 06:44:03;;;;;;;2.22;2.13;;;11.60;91.20;;;;;;5094366;28;20268;-74
2021/04/23 06:46:29;;;;;;;2.40;2.20;;;11.60;91.70;;;;;;5103473;28;20182;-73
2021/04/23 06:48:55;;;;;;;1.90;1.80;;;11.70;91.50;;;;;;5095339;28;20262;-73
2021/04/23 06:51:20;;;;;;;1.85;1.80;;;11.70;90.90;;;;;;5098202;28;20639;-73
2021/04/23 06:53:46;;;;;;;2.80;2.55;;;11.70;91.10;;;;;;5095775;28;20185;-73
2021/04/23 06:56:12;;;;;;;2.22;2.13;;;11.70;91.50;;;;;;5095196;28;20178;-73
2021/04/23 06:58:38;;;;;;;2.13;2.10;;;11.70;91.30;;;;;;5100722;28;20209;-73
2021/04/23 07:01:03;;;;;;;2.67;2.30;;;11.80;91.70;;;;;;5098372;28;20189;-74
2021/04/23 07:03:29;;;;;;;7.18;3.20;;;11.80;91.70;;;;;;5092202;28;20190;-73
2021/04/23 07:05:55;;;;;;;2.33;2.22;;;11.80;91.90;;;;;;5092950;28;20186;-73
2021/04/23 07:08:21;;;;;;;2.65;2.47;;;11.90;91.70;;;;;;5100269;28;20212;-73
2021/04/23 07:10:47;;;;;;;3.00;2.80;;;11.90;91.40;;;;;;5099726;28;20354;-73
2021/04/23 07:13:13;;;;;;;2.28;2.00;;;12.00;91.70;;;;;;5098032;28;20300;-74
2021/04/23 07:15:40;;;;;;;2.60;2.40;;;12.00;91.30;;;;;;5097380;28;20185;-73
2021/04/23 07:18:05;;;;;;;2.38;2.17;;;12.10;91.50;;;;;;5089205;28;20573;-73
2021/04/23 07:20:31;;;;;;;2.88;2.67;;;12.10;91.30;;;;;;5094897;28;20189;-73
2021/04/23 07:22:57;;;;;;;2.53;2.33;;;12.10;91.10;;;;;;5098417;28;20239;-73
2021/04/23 07:25:24;;;;;;;2.40;2.20;;;12.10;91.00;;;;;;5096273;28;20190;-73
2021/04/23 07:27:50;;;;;;;2.08;1.98;;;12.10;91.10;;;;;;5089986;28;20182;-72
2021/04/23 07:30:20;;;;;;;1.98;1.98;;;12.10;91.60;;;;;;5079928;28;20758;-72
2021/04/23 07:32:46;;;;;;;2.28;1.95;;;12.10;91.30;;;;;;5101898;28;20945;-74
2021/04/23 07:35:13;;;;;;;2.60;2.13;;;12.20;91.40;;;;;;5101850;28;20302;-74
2021/04/23 07:37:39;;;;;;;2.38;1.70;;;12.20;91.70;;;;;;5098534;28;20747;-73
2021/04/23 07:40:06;;;;;;;2.47;1.50;;;12.30;92.20;;;;;;5103097;28;20272;-74
2021/04/23 07:42:32;;;;;;;2.03;1.92;;;12.30;91.10;;;;;;5102376;28;20188;-73
2021/04/23 07:44:58;;;;;;;1.63;1.63;;;12.40;90.60;;;;;;5080443;28;20186;-74
2021/04/23 07:47:24;;;;;;;1.80;1.70;;;12.40;90.60;;;;;;5096635;28;20242;-73
2021/04/23 07:49:50;;;;;;;2.00;1.98;;;12.40;90.10;;;;;;5100503;28;20315;-73
2021/04/23 07:52:16;;;;;;;2.03;1.95;;;12.50;90.00;;;;;;5103628;28;20177;-73
2021/04/23 07:54:42;;;;;;;1.67;1.58;;;12.50;89.90;;;;;;5099655;28;20181;-74
2021/04/23 07:57:11;;;;;;;1.75;1.67;;;12.60;89.70;;;;;;5101682;28;20182;-73
2021/04/23 07:59:38;;;;;;;1.92;1.85;;;12.60;89.90;;;;;;5102509;28;20266;-74
2021/04/23 08:02:05;;;;;;;1.08;0.98;;;12.70;90.00;;;;;;5099461;28;20280;-73
2021/04/23 08:04:32;;;;;;;0.50;0.50;;;12.60;86.60;;;;;;5098984;28;20170;-73
2021/04/23 08:06:59;;;;;;;0.55;0.55;;;12.50;86.00;;;;;;5099933;28;20174;-73
2021/04/23 08:09:25;;;;;;;0.47;0.47;;;12.40;86.90;;;;;;5100496;28;20606;-73
2021/04/23 08:11:51;;;;;;;0.80;0.80;;;12.30;87.10;;;;;;5099521;28;20555;-73
2021/04/23 08:14:16;;;;;;;0.80;0.80;;;12.30;87.80;;;;;;5077830;28;20213;-74
2021/04/23 08:16:42;;;;;;;1.92;0.90;;;12.40;88.80;;;;;;5099613;28;20731;-73
2021/04/23 08:19:08;;;;;;;1.10;1.10;;;12.50;88.90;;;;;;5098787;28;20541;-74
2021/04/23 08:21:34;;;;;;;1.10;1.08;;;12.50;89.00;;;;;;5102242;28;20572;-74
2021/04/23 08:23:59;;;;;;;1.17;1.17;;;12.50;88.90;;;;;;5098933;28;20276;-74
2021/04/23 08:26:25;;;;;;;1.40;1.40;;;12.50;89.00;;;;;;5103278;28;20195;-73
2021/04/23 08:28:51;;;;;;;1.13;1.13;;;12.60;88.90;;;;;;5097916;28;20216;-74
2021/04/23 08:31:17;;;;;;;1.02;1.02;;;12.50;88.00;;;;;;5093835;28;20647;-74
2021/04/23 08:33:43;;;;;;;0.70;0.70;;;12.50;87.60;;;;;;5101382;28;20189;-73
2021/04/23 08:36:09;;;;;;;1.25;1.25;;;12.50;87.60;;;;;;5094645;28;20676;-73
2021/04/23 08:38:35;;;;;;;0.95;0.95;;;12.60;87.90;;;;;;5102605;28;20565;-73
2021/04/23 08:41:02;;;;;;;5.00;0.93;;;12.60;87.60;;;;;;5102561;28;20182;-74
2021/04/23 08:43:28;;;;;;;0.70;0.70;;;12.70;87.40;;;;;;5100372;28;20177;-73
2021/04/23 08:45:54;;;;;;;0.80;0.80;;;12.70;87.40;;;;;;5097881;28;20233;-73
2021/04/23 08:48:21;;;;;;;0.88;0.88;;;12.70;87.10;;;;;;5098091;28;20257;-74
2021/04/23 08:50:47;;;;;;;0.80;0.80;;;12.70;87.20;;;;;;5097133;28;20260;-74
2021/04/23 08:53:13;;;;;;;0.68;0.68;;;12.70;87.30;;;;;;5092868;28;20244;-74
2021/04/23 08:55:39;;;;;;;0.88;0.70;;;12.70;86.90;;;;;;5091360;28;20183;-74
2021/04/23 08:58:05;;;;;;;0.57;0.57;;;12.80;86.90;;;;;;5097381;28;20185;-74
2021/04/23 09:00:32;;;;;;;0.73;0.73;;;12.80;86.20;;;;;;5094031;28;20181;-74
2021/04/23 09:02:57;;;;;;;0.80;0.80;;;12.90;85.80;;;;;;5096549;28;20686;-74
2021/04/23 09:05:23;;;;;;;0.80;0.80;;;12.90;86.10;;;;;;5099836;28;20181;-75
2021/04/23 09:08:06;;;;;;;0.70;0.70;;;12.90;85.20;;;;;;5097396;28;20697;-74
2021/04/23 09:10:35;;;;;;;0.63;0.63;;;12.80;84.70;;;;;;5093188;28;20213;-74
2021/04/23 09:13:05;;;;;;;0.45;0.45;;;12.70;84.00;;;;;;5095355;28;20234;-74
2021/04/23 09:15:31;;;;;;;0.60;0.60;;;12.60;83.30;;;;;;5097842;28;20186;-74
2021/04/23 09:18:05;;;;;;;1.08;1.08;;;12.60;83.50;;;;;;5100360;28;20208;-74
2021/04/23 09:20:31;;;;;;;0.50;0.50;;;12.60;83.70;;;;;;5102830;28;20184;-74
2021/04/23 09:23:13;;;;;;;0.52;0.52;;;12.50;83.90;;;;;;5096175;28;20185;-74
2021/04/23 09:25:43;;;;;;;0.82;0.55;;;12.40;83.50;;;;;;5097155;28;20780;-74
2021/04/23 09:28:11;;;;;;;0.38;0.38;;;12.40;83.70;;;;;;5092900;28;20194;-74
2021/04/23 09:30:37;;;;;;;0.63;0.63;;;12.40;84.20;;;;;;5098856;28;20216;-74
2021/04/23 09:33:03;;;;;;;0.68;0.68;;;12.40;84.50;;;;;;5097886;28;20177;-74
2021/04/23 09:35:34;;;;;;;0.90;0.90;;;12.30;84.10;;;;;;5100550;28;20706;-73
2021/04/23 09:38:01;;;;;;;0.93;0.93;;;12.30;84.60;;;;;;5098244;28;20178;-74
2021/04/23 09:40:33;;;;;;;1.17;1.17;;;12.30;84.60;;;;;;5100483;28;20181;-73
2021/04/23 09:43:05;;;;;;;1.00;1.00;;;12.30;84.50;;;;;;5101100;28;20274;-74
2021/04/23 09:45:33;;;;;;;1.55;1.05;;;12.30;84.80;;;;;;5097795;28;20205;-74
2021/04/23 09:48:00;;;;;;;0.65;0.65;;;12.30;84.70;;;;;;5098471;28;20201;-73
2021/04/23 09:50:33;;;;;;;0.60;0.60;;;12.30;84.50;;;;;;5095670;28;20689;-73
2021/04/23 09:52:59;;;;;;;0.60;0.60;;;12.20;84.70;;;;;;5092207;28;20292;-73
2021/04/23 09:55:27;;;;;;;0.95;0.95;;;12.20;84.70;;;;;;5086636;28;20689;-74
2021/04/23 09:57:54;;;;;;;1.17;1.17;;;12.20;85.10;;;;;;5092062;28;21854;-74
2021/04/23 10:00:24;;;;;;;1.60;1.50;;;12.20;85.00;;;;;;5089259;28;20194;-73
2021/04/23 10:02:57;;;;;;;1.48;1.40;;;12.30;85.60;;;;;;5100197;28;20545;-73
2021/04/23 10:05:32;;;;;;;2.17;1.70;;;12.40;85.70;;;;;;5095971;28;20169;-73
2021/04/23 10:08:00;;;;;;;1.65;1.40;;;12.50;85.00;;;;;;5081355;28;20724;-73
2021/04/23 10:10:27;;;;;;;0.90;0.90;;;12.60;84.80;;;;;;5097868;28;20217;-75
2021/04/23 10:12:54;;;;;;;0.88;0.88;;;12.60;83.40;;;;;;5098769;28;20200;-75
2021/04/23 10:15:25;;;;;;;1.00;1.00;;;12.70;83.70;;;;;;5099547;28;20177;-73
2021/04/23 10:17:55;;;;;;;1.13;1.13;;;12.70;84.10;;;;;;5091354;28;20178;-72
2021/04/23 10:20:24;;;;;;;0.93;0.93;;;12.80;83.80;;;;;;5103802;28;20678;-72
2021/04/23 10:22:51;;;;;;;1.50;0.80;;;12.90;83.80;;;;;;5103293;28;20234;-73
2021/04/23 10:25:18;;;;;;;2.00;0.95;;;13.00;83.30;;;;;;5103787;28;20194;-73
2021/04/23 10:27:45;;;;;;;1.40;1.10;;;13.10;83.60;;;;;;5103169;28;20207;-73
2021/04/23 10:30:16;;;;;;;1.13;1.13;;;13.10;82.70;;;;;;5107875;28;20305;-73
2021/04/23 10:32:42;;;;;;;1.25;1.20;;;13.20;83.50;;;;;;5103596;28;20643;-72
2021/04/23 10:35:09;;;;;;;1.95;1.17;;;13.30;82.90;;;;;;5101946;28;20234;-74
2021/04/23 10:37:35;;;;;;;1.38;1.38;;;13.40;81.80;;;;;;5099424;28;20255;-74
2021/04/23 10:40:02;;;;;;;1.92;1.83;;;13.30;80.70;;;;;;5084153;28;20185;-73
2021/04/23 10:42:49;;;;;;;1.77;1.67;;;13.30;80.20;;;;;;5100653;28;20186;-72
2021/04/23 10:45:30;;;;;;;1.63;1.60;;;13.40;80.80;;;;;;5095527;28;20188;-74
2021/04/23 10:47:57;;;;;;;1.23;1.23;;;13.40;81.10;;;;;;5097823;28;21523;-75
2021/04/23 10:50:40;;;;;;;1.55;1.55;;;13.30;80.80;;;;;;5096020;28;20311;-74
2021/04/23 10:53:27;;;;;;;2.63;1.25;;;13.30;79.70;;;;;;5094648;28;20653;-74
2021/04/23 10:55:56;;;;;;;2.28;1.25;;;13.20;79.20;;;;;;5013246;28;20207;-74
2021/04/23 10:58:28;;;;;;;1.40;1.40;;;13.30;79.30;;;;;;5015311;28;20665;-74
2021/04/23 11:00:58;;;;;;;1.30;1.20;;;13.30;78.40;;;;;;5010010;28;20258;-74
2021/04/23 11:03:26;;;;;;;0.82;0.82;;;13.30;78.20;;;;;;5013902;28;20222;-73
2021/04/23 11:05:57;;;;;;;1.35;1.15;;;13.20;78.60;;;;;;5015463;28;20696;-74
2021/04/23 11:08:25;;;;;;;1.05;1.05;;;13.10;78.80;;;;;;5015725;28;20203;-74
2021/04/23 11:11:08;;;;;;;1.35;1.35;;;13.00;79.30;;;;;;5017921;28;20734;-74
2021/04/23 11:13:39;;;;;;;1.05;1.00;;;13.00;79.50;;;;;;5011621;28;20308;-74
2021/04/23 11:16:20;;;;;;;1.38;1.00;;;13.00;79.30;;;;;;5015074;28;20670;-73
2021/04/23 11:18:47;;;;;;;0.80;0.80;;;13.00;79.30;;;;;;5014210;28;20920;-73
2021/04/23 11:21:34;;;;;;;2.80;0.93;;;13.00;79.20;;;;;;5016360;28;20219;-73
2021/04/23 11:24:21;;;;;;;0.88;0.85;;;13.00;79.80;;;;;;5012943;28;20258;-74
2021/04/23 11:29:41;;;;;;;1.10;1.10;;;13.20;77.40;;;;;;5014393;28;20683;-73
2021/04/23 11:32:08;;;;;;;1.52;1.08;;;13.40;78.30;;;;;;5021537;28;20622;-74
2021/04/23 11:34:38;;;;;;;1.00;1.00;;;13.60;78.00;;;;;;5096620;28;20651;-74
2021/04/23 11:37:12;;;;;;;1.42;1.42;;;13.90;76.30;;;;;;5099841;28;20256;-74
2021/04/23 11:39:45;;;;;;;1.70;1.70;;;14.20;76.00;;;;;;5095154;28;20603;-74
2021/04/23 11:42:28;;;;;;;1.73;1.73;;;14.50;76.00;;;;;;5098107;28;20181;-75
2021/04/23 11:45:03;;;;;;;1.75;1.75;;;15.00;75.40;;;;;;5103647;28;20244;-72
2021/04/23 11:47:41;;;;;;;1.42;1.42;;;15.70;74.60;;;;;;5095866;28;20174;-72
2021/04/23 11:50:09;;;;;;;1.33;1.33;;;16.40;72.40;;;;;;5101843;28;20221;-74
2021/04/23 11:52:35;;;;;;;1.73;1.73;;;16.80;71.80;;;;;;5102547;28;20177;-73
2021/04/23 11:55:07;;;;;;;1.75;1.67;;;17.20;71.40;;;;;;5097468;28;20208;-72
2021/04/23 11:57:33;;;;;;;1.75;1.75;;;17.40;70.20;;;;;;5100291;28;20177;-74
2021/04/23 12:00:16;;;;;;;1.25;1.25;;;17.50;71.50;;;;;;5099009;28;20193;-73
2021/04/23 12:03:04;;;;;;;1.88;1.65;;;17.80;70.20;;;;;;5101204;28;20185;-73
2021/04/23 12:05:39;;;;;;;0.95;0.95;;;17.80;70.00;;;;;;5079191;28;20235;-73
2021/04/23 12:08:16;;;;;;;1.05;1.05;;;17.90;69.60;;;;;;5096581;28;20181;-73
2021/04/23 12:10:48;;;;;;;1.23;1.23;;;18.10;69.60;;;;;;5100941;28;20200;-73
2021/04/23 12:13:22;;;;;;;1.50;1.40;;;17.90;69.90;;;;;;5099899;28;20265;-72
2021/04/23 12:15:50;;;;;;;4.03;1.33;;;17.90;70.80;;;;;;5104947;28;20180;-73
2021/04/23 12:18:17;;;;;;;2.50;1.00;;;18.10;70.40;;;;;;5099929;28;20184;-74
2021/04/23 12:20:45;;;;;;;1.13;1.13;;;18.40;67.90;;;;;;5104007;28;21766;-74
2021/04/23 12:23:13;;;;;;;1.48;1.48;;;18.60;67.60;;;;;;5096530;28;20183;-73
2021/04/23 12:25:41;;;;;;;1.80;1.70;;;18.60;67.70;;;;;;5102827;28;20193;-75
2021/04/23 12:28:19;;;;;;;2.10;2.10;;;18.60;67.40;;;;;;5091717;28;20263;-74
2021/04/23 12:30:48;;;;;;;2.20;2.15;;;18.10;67.50;;;;;;5094480;28;20210;-74
2021/04/23 12:33:14;;;;;;;2.65;2.55;;;17.80;68.40;;;;;;5097061;28;20201;-74
2021/04/23 12:38:40;;;;;;;2.78;2.67;;;17.40;68.90;;;;;;5101849;28;20994;-74
2021/04/23 12:41:18;;;;;;;3.33;3.15;;;17.50;69.20;;;;;;5112619;27;20761;-72
2021/04/23 12:43:44;;;;;;;3.25;3.15;;;17.50;69.10;;;;;;5102088;28;20174;-73
2021/04/23 12:46:24;;;;;;;3.15;2.97;;;17.10;69.70;;;;;;5098043;28;20177;-74
2021/04/23 12:49:05;;;;;;;3.50;3.40;;;16.80;72.30;;;;;;5095235;28;20182;-74
2021/04/23 12:51:31;;;;;;;3.78;3.58;;;16.50;71.70;;;;;;5093081;28;20308;-76
2021/04/23 12:53:58;;;;;;;2.97;2.88;;;16.20;72.50;;;;;;5093074;28;20186;-75
2021/04/23 12:56:26;;;;;;;2.42;2.35;;;15.90;72.80;;;;;;5094663;28;20196;-75
2021/04/23 12:58:53;;;;;;;2.78;2.17;;;15.60;73.00;;;;;;5095077;28;20239;-73